sensor_id;sensor_type;location;lat;lon;timestamp;temperature;humidity
10678;DHT22;5387;48.722;9.110;2022-12-07T00:00:34;2.70;99.90
10678;DHT22;5387;48.722;9.110;2022-12-07T00:03:01;2.70;99.90
10678;DHT22;5387;48.722;9.110;2022-12-07T00:05:29;2.80;99.90
10678;DHT22;5387;48.722;9.110;2022-12-07T00:07:56;2.80;99.90
10678;DHT22;5387;48.722;9.110;2022-12-07T00:10:24;2.90;99.90
10678;DHT22;5387;48.722;9.110;2022-12-07T00:12:51;2.90;99.90
10678;DHT22;5387;48.722;9.110;2022-12-07T00:15:18;2.80;99.90
10678;DHT22;5387;48.722;9.110;2022-12-07T00:17:45;2.90;99.90
10678;DHT22;5387;48.722;9.110;2022-12-07T00:20:11;2.90;99.90
10678;DHT22;5387;48.722;9.110;2022-12-07T00:22:38;2.80;99.90
10678;DHT22;5387;48.722;9.110;2022-12-07T00:25:05;2.80;99.90
10678;DHT22;5387;48.722;9.110;2022-12-07T00:27:34;2.70;99.90
10678;DHT22;5387;48.722;9.110;2022-12-07T00:30:01;2.80;99.90
10678;DHT22;5387;48.722;9.110;2022-12-07T00:32:28;2.70;99.90
10678;DHT22;5387;48.722;9.110;2022-12-07T00:34:54;2.60;99.90
10678;DHT22;5387;48.722;9.110;2022-12-07T00:37:21;2.60;99.90
10678;DHT22;5387;48.722;9.110;2022-12-07T00:39:48;2.70;99.90
10678;DHT22;5387;48.722;9.110;2022-12-07T00:42:15;2.70;99.90
10678;DHT22;5387;48.722;9.110;2022-12-07T00:44:43;2.70;99.90
10678;DHT22;5387;48.722;9.110;2022-12-07T00:47:10;2.70;99.90
10678;DHT22;5387;48.722;9.110;2022-12-07T00:49:37;2.70;99.90
10678;DHT22;5387;48.722;9.110;2022-12-07T00:52:03;2.70;99.90
10678;DHT22;5387;48.722;9.110;2022-12-07T00:54:30;2.70;99.90
10678;DHT22;5387;48.722;9.110;2022-12-07T00:56:57;2.70;99.90
10678;DHT22;5387;48.722;9.110;2022-12-07T00:59:24;2.70;99.90
10678;DHT22;5387;48.722;9.110;2022-12-07T01:01:52;2.70;99.90
10678;DHT22;5387;48.722;9.110;2022-12-07T01:04:19;2.50;99.90
10678;DHT22;5387;48.722;9.110;2022-12-07T01:06:46;2.60;99.90
10678;DHT22;5387;48.722;9.110;2022-12-07T01:09:13;2.50;99.90
10678;DHT22;5387;48.722;9.110;2022-12-07T01:11:39;2.40;99.90
10678;DHT22;5387;48.722;9.110;2022-12-07T01:14:06;2.40;99.90
10678;DHT22;5387;48.722;9.110;2022-12-07T01:16:33;2.40;99.90
10678;DHT22;5387;48.722;9.110;2022-12-07T01:19:02;2.30;99.90
10678;DHT22;5387;48.722;9.110;2022-12-07T01:21:32;2.40;99.90
10678;DHT22;5387;48.722;9.110;2022-12-07T01:24:02;2.40;99.90
10678;DHT22;5387;48.722;9.110;2022-12-07T01:26:29;2.50;99.90
10678;DHT22;5387;48.722;9.110;2022-12-07T01:28:55;2.60;99.90
10678;DHT22;5387;48.722;9.110;2022-12-07T01:31:25;2.50;99.90
10678;DHT22;5387;48.722;9.110;2022-12-07T01:33:54;2.40;99.90
10678;DHT22;5387;48.722;9.110;2022-12-07T01:36:24;2.40;99.90
10678;DHT22;5387;48.722;9.110;2022-12-07T01:38:54;2.40;99.90
10678;DHT22;5387;48.722;9.110;2022-12-07T01:41:22;2.30;99.90
10678;DHT22;5387;48.722;9.110;2022-12-07T01:44:10;2.30;99.90
10678;DHT22;5387;48.722;9.110;2022-12-07T01:46:38;2.30;99.90
10678;DHT22;5387;48.722;9.110;2022-12-07T01:49:07;2.40;99.90
10678;DHT22;5387;48.722;9.110;2022-12-07T01:51:37;2.40;99.90
10678;DHT22;5387;48.722;9.110;2022-12-07T01:54:05;2.40;99.90
10678;DHT22;5387;48.722;9.110;2022-12-07T01:56:33;2.30;99.90
10678;DHT22;5387;48.722;9.110;2022-12-07T01:59:01;2.50;99.90
10678;DHT22;5387;48.722;9.110;2022-12-07T02:01:28;2.50;99.90
10678;DHT22;5387;48.722;9.110;2022-12-07T02:03:55;2.40;99.90
10678;DHT22;5387;48.722;9.110;2022-12-07T02:06:24;2.30;99.90
10678;DHT22;5387;48.722;9.110;2022-12-07T02:08:53;2.30;99.90
10678;DHT22;5387;48.722;9.110;2022-12-07T02:11:21;2.40;99.90
10678;DHT22;5387;48.722;9.110;2022-12-07T02:13:48;2.40;99.90
10678;DHT22;5387;48.722;9.110;2022-12-07T02:16:25;2.40;99.90
10678;DHT22;5387;48.722;9.110;2022-12-07T02:19:03;2.30;99.90
10678;DHT22;5387;48.722;9.110;2022-12-07T02:21:38;2.40;99.90
10678;DHT22;5387;48.722;9.110;2022-12-07T02:24:29;2.40;99.90
10678;DHT22;5387;48.722;9.110;2022-12-07T02:27:26;2.30;99.90
10678;DHT22;5387;48.722;9.110;2022-12-07T02:30:00;2.30;99.90
10678;DHT22;5387;48.722;9.110;2022-12-07T02:32:36;2.40;99.90
10678;DHT22;5387;48.722;9.110;2022-12-07T02:35:06;2.50;99.90
10678;DHT22;5387;48.722;9.110;2022-12-07T02:37:40;2.60;99.90
10678;DHT22;5387;48.722;9.110;2022-12-07T02:40:11;2.70;99.90
10678;DHT22;5387;48.722;9.110;2022-12-07T02:42:45;2.70;99.90
10678;DHT22;5387;48.722;9.110;2022-12-07T02:45:18;2.80;99.90
10678;DHT22;5387;48.722;9.110;2022-12-07T02:47:48;2.80;99.90
10678;DHT22;5387;48.722;9.110;2022-12-07T02:50:18;2.80;99.90
10678;DHT22;5387;48.722;9.110;2022-12-07T02:52:45;2.70;99.90
10678;DHT22;5387;48.722;9.110;2022-12-07T02:55:13;2.80;99.90
10678;DHT22;5387;48.722;9.110;2022-12-07T02:57:52;2.70;99.90
10678;DHT22;5387;48.722;9.110;2022-12-07T03:00:22;2.60;99.90
10678;DHT22;5387;48.722;9.110;2022-12-07T03:02:55;2.60;99.90
10678;DHT22;5387;48.722;9.110;2022-12-07T03:05:36;2.50;99.90
10678;DHT22;5387;48.722;9.110;2022-12-07T03:08:15;2.60;99.90
10678;DHT22;5387;48.722;9.110;2022-12-07T03:10:54;2.50;99.90
10678;DHT22;5387;48.722;9.110;2022-12-07T03:13:28;2.60;99.90
10678;DHT22;5387;48.722;9.110;2022-12-07T03:16:02;2.50;99.90
10678;DHT22;5387;48.722;9.110;2022-12-07T03:18:35;2.80;99.90
10678;DHT22;5387;48.722;9.110;2022-12-07T03:21:06;2.50;99.90
10678;DHT22;5387;48.722;9.110;2022-12-07T03:23:37;2.60;99.90
10678;DHT22;5387;48.722;9.110;2022-12-07T03:26:06;2.40;99.90
10678;DHT22;5387;48.722;9.110;2022-12-07T03:28:38;2.40;99.90
10678;DHT22;5387;48.722;9.110;2022-12-07T03:31:12;2.40;99.90
10678;DHT22;5387;48.722;9.110;2022-12-07T03:33:46;2.40;99.90
10678;DHT22;5387;48.722;9.110;2022-12-07T03:36:19;2.40;99.90
10678;DHT22;5387;48.722;9.110;2022-12-07T03:38:50;2.30;99.90
10678;DHT22;5387;48.722;9.110;2022-12-07T03:41:23;2.40;99.90
10678;DHT22;5387;48.722;9.110;2022-12-07T03:43:51;2.30;99.90
10678;DHT22;5387;48.722;9.110;2022-12-07T03:46:29;2.30;99.90
10678;DHT22;5387;48.722;9.110;2022-12-07T03:49:07;2.30;99.90
10678;DHT22;5387;48.722;9.110;2022-12-07T03:51:40;2.30;99.90
10678;DHT22;5387;48.722;9.110;2022-12-07T03:54:11;2.40;99.90
10678;DHT22;5387;48.722;9.110;2022-12-07T03:56:40;2.40;99.90
10678;DHT22;5387;48.722;9.110;2022-12-07T03:59:09;2.30;99.90
10678;DHT22;5387;48.722;9.110;2022-12-07T04:01:37;2.30;99.90
10678;DHT22;5387;48.722;9.110;2022-12-07T04:04:04;2.20;99.90
10678;DHT22;5387;48.722;9.110;2022-12-07T04:06:31;2.30;99.90
10678;DHT22;5387;48.722;9.110;2022-12-07T04:08:58;2.30;99.90
10678;DHT22;5387;48.722;9.110;2022-12-07T04:11:25;2.30;99.90
10678;DHT22;5387;48.722;9.110;2022-12-07T04:13:52;2.50;99.90
10678;DHT22;5387;48.722;9.110;2022-12-07T04:16:37;2.60;99.90
10678;DHT22;5387;48.722;9.110;2022-12-07T04:19:04;2.70;99.90
10678;DHT22;5387;48.722;9.110;2022-12-07T04:21:31;2.80;99.90
10678;DHT22;5387;48.722;9.110;2022-12-07T04:23:58;2.80;99.90
10678;DHT22;5387;48.722;9.110;2022-12-07T04:26:25;2.90;99.90
10678;DHT22;5387;48.722;9.110;2022-12-07T04:28:52;2.70;99.90
10678;DHT22;5387;48.722;9.110;2022-12-07T04:31:18;2.70;99.90
10678;DHT22;5387;48.722;9.110;2022-12-07T04:33:47;2.70;99.90
10678;DHT22;5387;48.722;9.110;2022-12-07T04:36:13;2.60;99.90
10678;DHT22;5387;48.722;9.110;2022-12-07T04:38:40;2.60;99.90
10678;DHT22;5387;48.722;9.110;2022-12-07T04:41:08;2.60;99.90
10678;DHT22;5387;48.722;9.110;2022-12-07T04:43:35;2.40;99.90
10678;DHT22;5387;48.722;9.110;2022-12-07T04:46:02;2.40;99.90
10678;DHT22;5387;48.722;9.110;2022-12-07T04:48:29;2.40;99.90
10678;DHT22;5387;48.722;9.110;2022-12-07T04:50:58;2.40;99.90
10678;DHT22;5387;48.722;9.110;2022-12-07T04:53:25;2.40;99.90
10678;DHT22;5387;48.722;9.110;2022-12-07T04:55:51;2.50;99.90
10678;DHT22;5387;48.722;9.110;2022-12-07T04:58:18;2.40;99.90
10678;DHT22;5387;48.722;9.110;2022-12-07T05:00:45;2.40;99.90
10678;DHT22;5387;48.722;9.110;2022-12-07T05:03:12;2.40;99.90
10678;DHT22;5387;48.722;9.110;2022-12-07T05:05:40;2.40;99.90
10678;DHT22;5387;48.722;9.110;2022-12-07T05:08:09;2.30;99.90
10678;DHT22;5387;48.722;9.110;2022-12-07T05:10:36;2.20;99.90
10678;DHT22;5387;48.722;9.110;2022-12-07T05:13:03;2.20;99.90
10678;DHT22;5387;48.722;9.110;2022-12-07T05:15:29;2.10;99.90
10678;DHT22;5387;48.722;9.110;2022-12-07T05:17:56;2.10;99.90
10678;DHT22;5387;48.722;9.110;2022-12-07T05:20:23;2.20;99.90
10678;DHT22;5387;48.722;9.110;2022-12-07T05:22:50;2.20;99.90
10678;DHT22;5387;48.722;9.110;2022-12-07T05:25:18;2.20;99.90
10678;DHT22;5387;48.722;9.110;2022-12-07T05:27:45;2.30;99.90
10678;DHT22;5387;48.722;9.110;2022-12-07T05:30:13;2.30;99.90
10678;DHT22;5387;48.722;9.110;2022-12-07T05:32:39;2.30;99.90
10678;DHT22;5387;48.722;9.110;2022-12-07T05:35:07;2.20;99.90
10678;DHT22;5387;48.722;9.110;2022-12-07T05:37:34;2.10;99.90
10678;DHT22;5387;48.722;9.110;2022-12-07T05:40:01;2.00;99.90
10678;DHT22;5387;48.722;9.110;2022-12-07T05:42:29;2.00;99.90
10678;DHT22;5387;48.722;9.110;2022-12-07T05:44:56;2.00;99.90
10678;DHT22;5387;48.722;9.110;2022-12-07T05:47:23;2.00;99.90
10678;DHT22;5387;48.722;9.110;2022-12-07T05:49:50;1.90;99.90
10678;DHT22;5387;48.722;9.110;2022-12-07T05:52:17;1.90;99.90
10678;DHT22;5387;48.722;9.110;2022-12-07T05:54:44;1.70;99.90
10678;DHT22;5387;48.722;9.110;2022-12-07T05:57:11;1.80;99.90
10678;DHT22;5387;48.722;9.110;2022-12-07T05:59:39;1.80;99.90
10678;DHT22;5387;48.722;9.110;2022-12-07T06:02:07;1.80;99.90
10678;DHT22;5387;48.722;9.110;2022-12-07T06:04:36;1.60;99.90
10678;DHT22;5387;48.722;9.110;2022-12-07T06:07:03;1.60;99.90
10678;DHT22;5387;48.722;9.110;2022-12-07T06:09:30;1.60;99.90
10678;DHT22;5387;48.722;9.110;2022-12-07T06:11:58;1.60;99.90
10678;DHT22;5387;48.722;9.110;2022-12-07T06:14:45;1.60;99.90
10678;DHT22;5387;48.722;9.110;2022-12-07T06:17:12;1.70;99.90
10678;DHT22;5387;48.722;9.110;2022-12-07T06:19:39;1.70;99.90
10678;DHT22;5387;48.722;9.110;2022-12-07T06:22:06;1.80;99.90
10678;DHT22;5387;48.722;9.110;2022-12-07T06:24:35;2.00;99.90
10678;DHT22;5387;48.722;9.110;2022-12-07T06:27:02;2.00;99.90
10678;DHT22;5387;48.722;9.110;2022-12-07T06:29:29;2.30;99.90
10678;DHT22;5387;48.722;9.110;2022-12-07T06:31:57;2.30;99.90
10678;DHT22;5387;48.722;9.110;2022-12-07T06:34:25;2.40;99.90
10678;DHT22;5387;48.722;9.110;2022-12-07T06:36:53;2.40;99.90
10678;DHT22;5387;48.722;9.110;2022-12-07T06:39:21;2.50;99.90
10678;DHT22;5387;48.722;9.110;2022-12-07T06:41:50;2.40;99.90
10678;DHT22;5387;48.722;9.110;2022-12-07T06:44:18;2.50;99.90
10678;DHT22;5387;48.722;9.110;2022-12-07T06:46:45;2.50;99.90
10678;DHT22;5387;48.722;9.110;2022-12-07T06:49:14;2.50;99.90
10678;DHT22;5387;48.722;9.110;2022-12-07T06:51:41;2.40;99.90
10678;DHT22;5387;48.722;9.110;2022-12-07T06:54:08;2.20;99.90
10678;DHT22;5387;48.722;9.110;2022-12-07T06:56:35;2.20;99.90
10678;DHT22;5387;48.722;9.110;2022-12-07T06:59:02;2.20;99.90
10678;DHT22;5387;48.722;9.110;2022-12-07T07:01:31;2.30;99.90
10678;DHT22;5387;48.722;9.110;2022-12-07T07:03:57;2.30;99.90
10678;DHT22;5387;48.722;9.110;2022-12-07T07:06:26;2.10;99.90
10678;DHT22;5387;48.722;9.110;2022-12-07T07:08:53;2.10;99.90
10678;DHT22;5387;48.722;9.110;2022-12-07T07:11:20;2.10;99.90
10678;DHT22;5387;48.722;9.110;2022-12-07T07:13:47;2.10;99.90
10678;DHT22;5387;48.722;9.110;2022-12-07T07:16:14;2.20;99.90
10678;DHT22;5387;48.722;9.110;2022-12-07T07:18:41;2.40;99.90
10678;DHT22;5387;48.722;9.110;2022-12-07T07:21:07;2.40;99.90
10678;DHT22;5387;48.722;9.110;2022-12-07T07:23:36;2.40;99.90
10678;DHT22;5387;48.722;9.110;2022-12-07T07:26:03;2.50;99.90
10678;DHT22;5387;48.722;9.110;2022-12-07T07:28:30;2.40;99.90
10678;DHT22;5387;48.722;9.110;2022-12-07T07:30:56;2.50;99.90
10678;DHT22;5387;48.722;9.110;2022-12-07T07:33:23;2.60;99.90
10678;DHT22;5387;48.722;9.110;2022-12-07T07:35:50;2.60;99.90
10678;DHT22;5387;48.722;9.110;2022-12-07T07:38:17;2.70;99.90
10678;DHT22;5387;48.722;9.110;2022-12-07T07:40:45;2.90;99.90
10678;DHT22;5387;48.722;9.110;2022-12-07T07:43:12;2.80;99.90
10678;DHT22;5387;48.722;9.110;2022-12-07T07:45:39;2.90;99.90
10678;DHT22;5387;48.722;9.110;2022-12-07T07:48:06;2.90;99.90
10678;DHT22;5387;48.722;9.110;2022-12-07T07:50:33;2.90;99.90
10678;DHT22;5387;48.722;9.110;2022-12-07T07:52:59;3.00;99.90
10678;DHT22;5387;48.722;9.110;2022-12-07T07:55:26;3.10;99.90
10678;DHT22;5387;48.722;9.110;2022-12-07T07:57:54;3.10;99.90
10678;DHT22;5387;48.722;9.110;2022-12-07T08:00:22;3.00;99.90
10678;DHT22;5387;48.722;9.110;2022-12-07T08:02:49;3.10;99.90
10678;DHT22;5387;48.722;9.110;2022-12-07T08:05:16;3.00;99.90
10678;DHT22;5387;48.722;9.110;2022-12-07T08:07:43;3.10;99.90
10678;DHT22;5387;48.722;9.110;2022-12-07T08:10:12;3.20;99.90
10678;DHT22;5387;48.722;9.110;2022-12-07T08:12:39;3.30;99.90
10678;DHT22;5387;48.722;9.110;2022-12-07T08:15:30;3.20;99.90
10678;DHT22;5387;48.722;9.110;2022-12-07T08:17:57;3.30;99.90
10678;DHT22;5387;48.722;9.110;2022-12-07T08:20:24;3.50;99.90
10678;DHT22;5387;48.722;9.110;2022-12-07T08:22:51;3.50;99.90
10678;DHT22;5387;48.722;9.110;2022-12-07T08:25:18;3.60;99.90
10678;DHT22;5387;48.722;9.110;2022-12-07T08:27:44;3.60;99.90
10678;DHT22;5387;48.722;9.110;2022-12-07T08:30:12;3.50;99.90
10678;DHT22;5387;48.722;9.110;2022-12-07T08:32:40;3.60;99.90
10678;DHT22;5387;48.722;9.110;2022-12-07T08:35:08;3.70;99.90
10678;DHT22;5387;48.722;9.110;2022-12-07T08:37:35;3.70;99.90
10678;DHT22;5387;48.722;9.110;2022-12-07T08:40:03;3.80;99.90
10678;DHT22;5387;48.722;9.110;2022-12-07T08:42:30;3.90;99.90
10678;DHT22;5387;48.722;9.110;2022-12-07T08:45:04;3.70;99.90
10678;DHT22;5387;48.722;9.110;2022-12-07T08:47:32;3.80;99.90
10678;DHT22;5387;48.722;9.110;2022-12-07T08:50:01;3.60;99.90
10678;DHT22;5387;48.722;9.110;2022-12-07T08:52:29;3.80;99.90
10678;DHT22;5387;48.722;9.110;2022-12-07T08:54:56;3.70;99.90
10678;DHT22;5387;48.722;9.110;2022-12-07T08:57:24;3.70;99.90
10678;DHT22;5387;48.722;9.110;2022-12-07T08:59:51;3.70;99.90
10678;DHT22;5387;48.722;9.110;2022-12-07T09:02:18;3.90;99.90
10678;DHT22;5387;48.722;9.110;2022-12-07T09:04:45;4.00;99.90
10678;DHT22;5387;48.722;9.110;2022-12-07T09:07:13;3.90;99.90
10678;DHT22;5387;48.722;9.110;2022-12-07T09:09:40;3.80;99.90
10678;DHT22;5387;48.722;9.110;2022-12-07T09:12:07;4.00;99.90
10678;DHT22;5387;48.722;9.110;2022-12-07T09:14:34;4.00;99.90
10678;DHT22;5387;48.722;9.110;2022-12-07T09:17:06;3.90;99.90
10678;DHT22;5387;48.722;9.110;2022-12-07T09:19:33;4.20;99.90
10678;DHT22;5387;48.722;9.110;2022-12-07T09:22:00;4.10;99.90
10678;DHT22;5387;48.722;9.110;2022-12-07T09:24:28;4.10;99.90
10678;DHT22;5387;48.722;9.110;2022-12-07T09:26:55;4.10;99.90
10678;DHT22;5387;48.722;9.110;2022-12-07T09:29:22;4.30;99.90
10678;DHT22;5387;48.722;9.110;2022-12-07T09:31:49;4.40;99.90
10678;DHT22;5387;48.722;9.110;2022-12-07T09:34:16;4.50;99.90
10678;DHT22;5387;48.722;9.110;2022-12-07T09:36:43;4.10;99.90
10678;DHT22;5387;48.722;9.110;2022-12-07T09:39:10;4.40;99.90
10678;DHT22;5387;48.722;9.110;2022-12-07T09:41:40;4.30;99.90
10678;DHT22;5387;48.722;9.110;2022-12-07T09:44:11;4.30;99.90
10678;DHT22;5387;48.722;9.110;2022-12-07T09:46:40;4.40;99.90
10678;DHT22;5387;48.722;9.110;2022-12-07T09:49:12;4.50;99.90
10678;DHT22;5387;48.722;9.110;2022-12-07T09:51:41;4.60;99.90
10678;DHT22;5387;48.722;9.110;2022-12-07T09:54:09;4.60;99.90
10678;DHT22;5387;48.722;9.110;2022-12-07T09:56:40;4.80;99.90
10678;DHT22;5387;48.722;9.110;2022-12-07T09:59:13;5.00;99.90
10678;DHT22;5387;48.722;9.110;2022-12-07T10:01:43;5.20;99.90
10678;DHT22;5387;48.722;9.110;2022-12-07T10:04:13;5.10;99.90
10678;DHT22;5387;48.722;9.110;2022-12-07T10:06:41;5.10;99.90
10678;DHT22;5387;48.722;9.110;2022-12-07T10:09:10;5.10;99.90
10678;DHT22;5387;48.722;9.110;2022-12-07T10:12:03;5.10;99.90
10678;DHT22;5387;48.722;9.110;2022-12-07T10:14:32;5.10;99.90
10678;DHT22;5387;48.722;9.110;2022-12-07T10:16:59;5.00;99.90
10678;DHT22;5387;48.722;9.110;2022-12-07T10:19:28;4.70;99.90
10678;DHT22;5387;48.722;9.110;2022-12-07T10:22:09;4.90;99.90
10678;DHT22;5387;48.722;9.110;2022-12-07T10:24:37;4.90;99.90
10678;DHT22;5387;48.722;9.110;2022-12-07T10:27:18;4.90;99.90
10678;DHT22;5387;48.722;9.110;2022-12-07T10:29:48;5.00;99.90
10678;DHT22;5387;48.722;9.110;2022-12-07T10:32:31;5.00;99.90
10678;DHT22;5387;48.722;9.110;2022-12-07T10:35:24;5.30;99.90
10678;DHT22;5387;48.722;9.110;2022-12-07T10:37:52;5.30;99.90
10678;DHT22;5387;48.722;9.110;2022-12-07T10:40:30;5.30;99.90
10678;DHT22;5387;48.722;9.110;2022-12-07T10:43:18;5.20;99.90
10678;DHT22;5387;48.722;9.110;2022-12-07T10:46:17;5.20;99.90
10678;DHT22;5387;48.722;9.110;2022-12-07T10:48:57;5.10;99.90
10678;DHT22;5387;48.722;9.110;2022-12-07T10:51:32;5.20;99.90
10678;DHT22;5387;48.722;9.110;2022-12-07T10:54:10;5.40;99.90
10678;DHT22;5387;48.722;9.110;2022-12-07T10:56:58;5.20;99.90
10678;DHT22;5387;48.722;9.110;2022-12-07T10:59:48;5.10;99.90
10678;DHT22;5387;48.722;9.110;2022-12-07T11:02:40;5.10;99.90
10678;DHT22;5387;48.722;9.110;2022-12-07T11:05:20;5.20;99.90
10678;DHT22;5387;48.722;9.110;2022-12-07T11:07:58;5.20;99.90
10678;DHT22;5387;48.722;9.110;2022-12-07T11:10:33;5.20;99.90
10678;DHT22;5387;48.722;9.110;2022-12-07T11:13:22;5.20;99.90
10678;DHT22;5387;48.722;9.110;2022-12-07T11:16:14;5.20;99.90
10678;DHT22;5387;48.722;9.110;2022-12-07T11:18:48;5.50;99.90
10678;DHT22;5387;48.722;9.110;2022-12-07T11:21:23;5.50;99.90
10678;DHT22;5387;48.722;9.110;2022-12-07T11:23:59;5.30;99.90
10678;DHT22;5387;48.722;9.110;2022-12-07T11:26:40;5.60;99.90
10678;DHT22;5387;48.722;9.110;2022-12-07T11:32:05;5.30;99.90
10678;DHT22;5387;48.722;9.110;2022-12-07T11:34:39;5.00;99.90
10678;DHT22;5387;48.722;9.110;2022-12-07T11:37:13;5.20;99.90
10678;DHT22;5387;48.722;9.110;2022-12-07T11:39:44;5.40;99.90
10678;DHT22;5387;48.722;9.110;2022-12-07T11:42:18;5.10;99.90
10678;DHT22;5387;48.722;9.110;2022-12-07T11:44:50;4.80;99.90
10678;DHT22;5387;48.722;9.110;2022-12-07T11:47:28;4.90;99.90
10678;DHT22;5387;48.722;9.110;2022-12-07T11:50:03;5.00;99.90
10678;DHT22;5387;48.722;9.110;2022-12-07T11:52:40;5.00;99.90
10678;DHT22;5387;48.722;9.110;2022-12-07T11:55:18;5.10;99.90
10678;DHT22;5387;48.722;9.110;2022-12-07T11:57:50;5.00;99.90
10678;DHT22;5387;48.722;9.110;2022-12-07T12:00:19;4.90;99.90
10678;DHT22;5387;48.722;9.110;2022-12-07T12:02:51;4.90;99.90
10678;DHT22;5387;48.722;9.110;2022-12-07T12:05:21;5.00;99.90
10678;DHT22;5387;48.722;9.110;2022-12-07T12:07:53;5.00;99.90
10678;DHT22;5387;48.722;9.110;2022-12-07T12:10:24;5.00;99.90
10678;DHT22;5387;48.722;9.110;2022-12-07T12:13:21;5.00;99.90
10678;DHT22;5387;48.722;9.110;2022-12-07T12:16:04;5.00;99.90
10678;DHT22;5387;48.722;9.110;2022-12-07T12:21:56;5.10;99.90
10678;DHT22;5387;48.722;9.110;2022-12-07T12:24:26;5.10;99.90
10678;DHT22;5387;48.722;9.110;2022-12-07T12:27:01;5.30;99.90
10678;DHT22;5387;48.722;9.110;2022-12-07T12:29:33;5.20;99.90
10678;DHT22;5387;48.722;9.110;2022-12-07T12:32:13;4.80;99.90
10678;DHT22;5387;48.722;9.110;2022-12-07T12:34:57;4.60;99.90
10678;DHT22;5387;48.722;9.110;2022-12-07T12:37:42;4.50;99.90
10678;DHT22;5387;48.722;9.110;2022-12-07T12:40:40;4.50;99.90
10678;DHT22;5387;48.722;9.110;2022-12-07T12:43:40;4.30;99.90
10678;DHT22;5387;48.722;9.110;2022-12-07T12:49:39;4.20;99.90
10678;DHT22;5387;48.722;9.110;2022-12-07T12:55:26;4.20;99.90
10678;DHT22;5387;48.722;9.110;2022-12-07T13:04:38;4.10;99.90
10678;DHT22;5387;48.722;9.110;2022-12-07T13:07:12;4.10;99.90
10678;DHT22;5387;48.722;9.110;2022-12-07T13:09:43;4.40;99.90
10678;DHT22;5387;48.722;9.110;2022-12-07T13:12:16;4.40;99.90
10678;DHT22;5387;48.722;9.110;2022-12-07T13:15:22;4.10;99.90
10678;DHT22;5387;48.722;9.110;2022-12-07T13:20:54;4.30;99.90
10678;DHT22;5387;48.722;9.110;2022-12-07T13:23:28;4.50;99.90
10678;DHT22;5387;48.722;9.110;2022-12-07T13:26:03;4.30;99.90
10678;DHT22;5387;48.722;9.110;2022-12-07T13:28:36;4.30;99.90
10678;DHT22;5387;48.722;9.110;2022-12-07T13:31:16;4.30;99.90
10678;DHT22;5387;48.722;9.110;2022-12-07T13:33:46;4.40;99.90
10678;DHT22;5387;48.722;9.110;2022-12-07T13:36:19;4.20;99.90
10678;DHT22;5387;48.722;9.110;2022-12-07T13:38:53;4.10;99.90
10678;DHT22;5387;48.722;9.110;2022-12-07T13:41:21;4.30;99.90
10678;DHT22;5387;48.722;9.110;2022-12-07T13:43:53;4.40;99.90
10678;DHT22;5387;48.722;9.110;2022-12-07T13:46:25;4.40;99.90
10678;DHT22;5387;48.722;9.110;2022-12-07T13:48:53;4.30;99.90
10678;DHT22;5387;48.722;9.110;2022-12-07T13:51:34;4.60;99.90
10678;DHT22;5387;48.722;9.110;2022-12-07T13:54:09;4.50;99.90
10678;DHT22;5387;48.722;9.110;2022-12-07T13:56:37;4.40;99.90
10678;DHT22;5387;48.722;9.110;2022-12-07T13:59:13;4.30;99.90
10678;DHT22;5387;48.722;9.110;2022-12-07T14:01:40;4.20;99.90
10678;DHT22;5387;48.722;9.110;2022-12-07T14:04:26;4.10;99.90
10678;DHT22;5387;48.722;9.110;2022-12-07T14:06:55;3.90;99.90
10678;DHT22;5387;48.722;9.110;2022-12-07T14:09:24;4.00;99.90
10678;DHT22;5387;48.722;9.110;2022-12-07T14:11:53;4.00;99.90
10678;DHT22;5387;48.722;9.110;2022-12-07T14:14:24;3.80;99.90
10678;DHT22;5387;48.722;9.110;2022-12-07T14:17:00;3.70;99.90
10678;DHT22;5387;48.722;9.110;2022-12-07T14:19:47;3.70;99.90
10678;DHT22;5387;48.722;9.110;2022-12-07T14:22:23;3.80;99.90
10678;DHT22;5387;48.722;9.110;2022-12-07T14:24:57;3.70;99.90
10678;DHT22;5387;48.722;9.110;2022-12-07T14:27:29;3.60;99.90
10678;DHT22;5387;48.722;9.110;2022-12-07T14:30:00;3.70;99.90
10678;DHT22;5387;48.722;9.110;2022-12-07T14:32:29;3.60;99.90
10678;DHT22;5387;48.722;9.110;2022-12-07T14:34:58;3.60;99.90
10678;DHT22;5387;48.722;9.110;2022-12-07T14:37:26;3.60;99.90
10678;DHT22;5387;48.722;9.110;2022-12-07T14:39:53;3.50;99.90
10678;DHT22;5387;48.722;9.110;2022-12-07T14:42:20;3.50;99.90
10678;DHT22;5387;48.722;9.110;2022-12-07T14:44:49;3.90;99.90
10678;DHT22;5387;48.722;9.110;2022-12-07T14:47:17;3.80;99.90
10678;DHT22;5387;48.722;9.110;2022-12-07T14:49:44;4.00;99.90
10678;DHT22;5387;48.722;9.110;2022-12-07T14:52:15;3.90;99.90
10678;DHT22;5387;48.722;9.110;2022-12-07T14:54:42;3.90;99.90
10678;DHT22;5387;48.722;9.110;2022-12-07T14:57:10;3.90;99.90
10678;DHT22;5387;48.722;9.110;2022-12-07T14:59:37;3.90;99.90
10678;DHT22;5387;48.722;9.110;2022-12-07T15:02:05;3.80;99.90
10678;DHT22;5387;48.722;9.110;2022-12-07T15:04:33;3.70;99.90
10678;DHT22;5387;48.722;9.110;2022-12-07T15:07:01;3.70;99.90
10678;DHT22;5387;48.722;9.110;2022-12-07T15:09:29;3.80;99.90
10678;DHT22;5387;48.722;9.110;2022-12-07T15:11:55;3.70;99.90
10678;DHT22;5387;48.722;9.110;2022-12-07T15:14:22;3.80;99.90
10678;DHT22;5387;48.722;9.110;2022-12-07T15:16:49;3.80;99.90
10678;DHT22;5387;48.722;9.110;2022-12-07T15:19:18;3.80;99.90
10678;DHT22;5387;48.722;9.110;2022-12-07T15:21:48;3.90;99.90
10678;DHT22;5387;48.722;9.110;2022-12-07T15:24:15;3.70;99.90
10678;DHT22;5387;48.722;9.110;2022-12-07T15:26:41;3.50;99.90
10678;DHT22;5387;48.722;9.110;2022-12-07T15:29:09;3.40;99.90
10678;DHT22;5387;48.722;9.110;2022-12-07T15:31:37;3.30;99.90
10678;DHT22;5387;48.722;9.110;2022-12-07T15:34:04;3.30;99.90
10678;DHT22;5387;48.722;9.110;2022-12-07T15:36:32;3.30;99.90
10678;DHT22;5387;48.722;9.110;2022-12-07T15:39:01;3.30;99.90
10678;DHT22;5387;48.722;9.110;2022-12-07T15:41:28;3.20;99.90
10678;DHT22;5387;48.722;9.110;2022-12-07T15:43:54;3.20;99.90
10678;DHT22;5387;48.722;9.110;2022-12-07T15:46:40;3.20;99.90
10678;DHT22;5387;48.722;9.110;2022-12-07T15:49:11;3.20;99.90
10678;DHT22;5387;48.722;9.110;2022-12-07T15:51:38;3.20;99.90
10678;DHT22;5387;48.722;9.110;2022-12-07T15:54:06;3.20;99.90
10678;DHT22;5387;48.722;9.110;2022-12-07T15:56:33;3.20;99.90
10678;DHT22;5387;48.722;9.110;2022-12-07T15:59:00;3.10;99.90
10678;DHT22;5387;48.722;9.110;2022-12-07T16:01:27;3.10;99.90
10678;DHT22;5387;48.722;9.110;2022-12-07T16:03:54;3.00;99.90
10678;DHT22;5387;48.722;9.110;2022-12-07T16:06:23;2.90;99.90
10678;DHT22;5387;48.722;9.110;2022-12-07T16:08:50;2.80;99.90
10678;DHT22;5387;48.722;9.110;2022-12-07T16:11:18;2.80;99.90
10678;DHT22;5387;48.722;9.110;2022-12-07T16:13:45;2.70;99.90
10678;DHT22;5387;48.722;9.110;2022-12-07T16:16:13;2.70;99.90
10678;DHT22;5387;48.722;9.110;2022-12-07T16:18:41;2.70;99.90
10678;DHT22;5387;48.722;9.110;2022-12-07T16:21:08;2.80;99.90
10678;DHT22;5387;48.722;9.110;2022-12-07T16:23:35;2.80;99.90
10678;DHT22;5387;48.722;9.110;2022-12-07T16:26:06;2.70;99.90
10678;DHT22;5387;48.722;9.110;2022-12-07T16:28:35;2.60;99.90
10678;DHT22;5387;48.722;9.110;2022-12-07T16:31:07;2.70;99.90
10678;DHT22;5387;48.722;9.110;2022-12-07T16:33:36;2.60;99.90
10678;DHT22;5387;48.722;9.110;2022-12-07T16:36:03;2.60;99.90
10678;DHT22;5387;48.722;9.110;2022-12-07T16:38:31;2.50;99.90
10678;DHT22;5387;48.722;9.110;2022-12-07T16:40:58;2.50;99.90
10678;DHT22;5387;48.722;9.110;2022-12-07T16:43:25;2.40;99.90
10678;DHT22;5387;48.722;9.110;2022-12-07T16:45:53;2.40;99.90